Terminal Aerodrome Forecast
Issued by NWS Pittsburgh, PA

Home | Current Version | Previous Version | Text Only | Print | Product List | Glossary On
Versions: 1 2 3 4 5 6 7 8 9 10 11 12 13 14 15 16 17 18 19 20 21 22 23 24 25 26 27 28 29 30 31 32 33 34 35 36 37 38
098
FTUS41 KPBZ 022326
TAFPIT
TAF
KPIT 022326Z 0300/0406 35005KT P6SM VCSH OVC035
     FM030400 VRB04KT 6SM BR VCSH BKN025
     FM031600 VRB04KT P6SM BKN030
     FM032000 31007KT P6SM BKN040
     FM040300 VRB03KT P6SM SCT070=

USA.gov is the U.S. government's official web portal to all federal, state and local government web resources and services.